Time;durP1;ratioP1;P1;durP2;ratioP2;P2;SDS_P1;SDS_P2;PMS_P1;PMS_P2;Temp;Humidity;BMP_temperature;BMP_pressure;BME280_temperature;BME280_humidity;BME280_pressure;Samples;Min_cycle;Max_cycle;Signal;HPM_P1;HPM_P2
2022/01/31 00:01:54;;;;;;;0.93;0.40;;;;;;;0.48;100.00;97108.05;1680642;85;20128;-72
2022/01/31 00:04:20;;;;;;;0.75;0.33;;;;;;;0.42;100.00;97100.58;1693828;85;21170;-72
2022/01/31 00:06:48;;;;;;;;;;;;;;;0.43;100.00;97102.70;1696415;85;21453;-73
2022/01/31 00:09:17;;;;;;;;;;;;;;;0.43;100.00;97096.81;1696167;85;20143;-72
2022/01/31 00:11:53;;;;;;;0.95;0.40;;;;;;;0.39;100.00;97089.05;1690945;84;20118;-72
2022/01/31 00:14:29;;;;;;;0.75;0.33;;;;;;;0.35;100.00;97105.41;1680005;85;21024;-72
2022/01/31 00:16:45;;;;;;;1.72;0.42;;;;;;;0.34;100.00;97101.12;1682534;85;21091;-72
2022/01/31 00:19:11;;;;;;;0.78;0.30;;;;;;;0.35;100.00;97110.77;1683730;85;21060;-73
2022/01/31 00:21:37;;;;;;;0.82;0.42;;;;;;;0.37;100.00;97099.23;1678519;84;21011;-72
2022/01/31 00:24:05;;;;;;;0.80;0.30;;;;;;;0.37;100.00;97101.11;1662279;86;21663;-72
2022/01/31 00:26:32;;;;;;;0.62;0.30;;;;;;;0.36;100.00;97101.64;1712278;83;21066;-72
2022/01/31 00:28:58;;;;;;;1.47;0.40;;;;;;;0.37;100.00;97105.13;1693355;85;21020;-72
2022/01/31 00:31:25;;;;;;;1.10;0.37;;;;;;;0.39;100.00;97098.98;1692999;85;21066;-71
2022/01/31 00:33:51;;;;;;;0.90;0.40;;;;;;;0.38;100.00;97094.70;1694160;83;21091;-72
2022/01/31 00:36:18;;;;;;;0.90;0.40;;;;;;;0.36;100.00;97104.32;1694214;84;21055;-72
2022/01/31 00:38:44;;;;;;;;;;;;;;;0.34;100.00;97098.98;1690431;83;21008;-72
2022/01/31 00:41:11;;;;;;;1.07;0.50;;;;;;;0.34;100.00;97094.44;1702296;83;20133;-71
2022/01/31 00:43:38;;;;;;;1.55;0.50;;;;;;;0.32;100.00;97104.59;1693830;85;21048;-72
2022/01/31 00:46:12;;;;;;;1.30;0.40;;;;;;;0.34;100.00;97096.30;1693524;85;21488;-72
2022/01/31 00:48:40;;;;;;;0.78;0.30;;;;;;;0.35;100.00;97095.23;1693385;84;21012;-71
2022/01/31 00:51:03;;;;;;;0.95;0.42;;;;;;;0.36;100.00;97090.13;1692522;84;21514;-71
2022/01/31 00:53:29;;;;;;;1.35;0.40;;;;;;;0.34;100.00;97089.08;1692382;85;21514;-72
2022/01/31 00:55:56;;;;;;;0.80;0.30;;;;;;;0.34;100.00;97087.74;1711384;82;21569;-72
2022/01/31 00:58:22;;;;;;;;;;;;;;;0.34;100.00;97089.61;1751328;82;21003;-73
2022/01/31 01:00:49;;;;;;;1.30;0.40;;;;;;;0.35;100.00;97097.92;1749479;82;20118;-72
2022/01/31 01:03:15;;;;;;;;;;;;;;;0.29;100.00;97085.59;1735442;81;21078;-72
2022/01/31 01:05:43;;;;;;;0.50;0.20;;;;;;;0.28;100.00;97086.16;1703006;82;20113;-72
2022/01/31 01:08:10;;;;;;;1.00;0.30;;;;;;;0.24;100.00;97087.77;1719055;83;20974;-71
2022/01/31 01:10:36;;;;;;;;;;;;;;;0.22;100.00;97091.22;1749878;82;21051;-72
2022/01/31 01:13:03;;;;;;;1.12;0.50;;;;;;;0.22;100.00;97091.22;1755925;81;20142;-71
2022/01/31 01:15:30;;;;;;;0.53;0.30;;;;;;;0.18;100.00;97094.73;1735470;82;21124;-70
2022/01/31 01:17:56;;;;;;;;;;;;;;;0.16;100.00;97104.87;1728263;82;20995;-70
2022/01/31 01:20:24;;;;;;;0.40;0.17;;;;;;;0.12;100.00;97114.51;1698242;83;20107;-70
2022/01/31 01:22:50;;;;;;;0.75;0.28;;;;;;;0.04;100.00;97099.80;1720786;83;20995;-71
2022/01/31 01:25:17;;;;;;;1.30;0.40;;;;;;;0.02;100.00;97105.16;1703666;83;21123;-69
2022/01/31 01:27:46;;;;;;;0.60;0.30;;;;;;;0.01;100.00;97115.05;1688891;83;20975;-71
2022/01/31 01:30:14;;;;;;;1.15;0.30;;;;;;;0.02;100.00;97101.14;1718611;83;21095;-72
2022/01/31 01:32:59;;;;;;;0.60;0.25;;;;;;;0.01;100.00;97100.34;1715277;83;21038;-71
2022/01/31 01:35:13;;;;;;;0.60;0.30;;;;;;;0.02;100.00;97115.32;1693767;83;21059;-71
2022/01/31 01:37:40;;;;;;;1.45;0.50;;;;;;;0.04;100.00;97109.16;1704676;83;21039;-70
2022/01/31 01:40:08;;;;;;;0.53;0.20;;;;;;;0.07;100.00;97107.84;1692221;85;21083;-71
2022/01/31 01:42:35;;;;;;;1.20;0.33;;;;;;;0.07;100.00;97105.97;1699624;83;21012;-71
2022/01/31 01:45:02;;;;;;;0.80;0.30;;;;;;;0.09;100.00;97109.70;1719054;83;21064;-69
2022/01/31 01:47:31;;;;;;;1.22;0.30;;;;;;;0.10;100.00;97100.08;1690954;85;21000;-70
2022/01/31 01:49:57;;;;;;;;;;;;;;;0.09;100.00;97099.00;1674090;83;21094;-71
2022/01/31 01:52:25;;;;;;;2.15;0.30;;;;;;;0.10;100.00;97104.63;1721175;83;20107;-71
2022/01/31 01:54:52;;;;;;;0.93;0.23;;;;;;;0.05;100.00;97100.07;1717826;83;21123;-71
2022/01/31 01:57:22;;;;;;;0.82;0.30;;;;;;;0.02;100.00;97109.97;1674212;83;21509;-70
2022/01/31 01:59:55;;;;;;;0.40;0.20;;;;;;;0.05;100.00;97104.61;1696144;83;21059;-69
2022/01/31 02:02:20;;;;;;;1.40;0.30;;;;;;;0.03;100.00;97104.09;1704973;83;21609;-70
2022/01/31 02:04:47;;;;;;;1.17;0.50;;;;;;;0.00;100.00;97102.77;1697782;83;21075;-70
2022/01/31 02:07:15;;;;;;;1.52;0.40;;;;;;;-0.01;100.00;97105.16;1707664;83;21007;-70
2022/01/31 02:09:44;;;;;;;;;;;;;;;-0.04;100.00;97108.38;1688240;83;21058;-69
2022/01/31 02:12:11;;;;;;;0.70;0.30;;;;;;;-0.04;100.00;97113.16;1672308;84;20121;-71
2022/01/31 02:14:38;;;;;;;1.98;0.50;;;;;;;-0.10;100.00;97115.58;1653211;85;21568;-70
2022/01/31 02:17:20;;;;;;;1.87;0.50;;;;;;;-0.10;100.00;97103.55;1684750;84;21044;-70
2022/01/31 02:19:53;;;;;;;2.45;0.50;;;;;;;-0.11;100.00;97100.59;1682215;85;21154;-70
2022/01/31 02:22:24;;;;;;;1.62;0.47;;;;;;;-0.10;100.00;97102.73;1683679;84;21072;-69
2022/01/31 02:24:59;;;;;;;1.67;0.45;;;;;;;-0.09;100.00;97103.82;1689673;84;21016;-71
2022/01/31 02:27:34;;;;;;;1.07;0.53;;;;;;;-0.09;100.00;97102.48;1711655;84;21067;-71
2022/01/31 02:30:07;;;;;;;1.77;0.50;;;;;;;-0.08;100.00;97116.13;1690334;83;21563;-69
2022/01/31 02:32:38;;;;;;;1.25;0.40;;;;;;;-0.08;100.00;97108.64;1696011;83;21470;-69
2022/01/31 02:35:05;;;;;;;1.12;0.40;;;;;;;-0.10;100.00;97118.25;1705107;83;21111;-71
2022/01/31 02:37:33;;;;;;;4.15;0.60;;;;;;;-0.10;100.00;97105.41;1693626;85;21023;-70
2022/01/31 02:40:07;;;;;;;2.50;0.57;;;;;;;-0.10;100.00;97109.42;1692323;84;21056;-72
2022/01/31 02:42:34;;;;;;;3.08;0.57;;;;;;;-0.10;100.00;97109.42;1692313;85;21019;-72
2022/01/31 02:45:01;;;;;;;1.25;0.50;;;;;;;-0.09;100.00;97107.02;1713510;83;21906;-70
2022/01/31 02:49:14;;;;;;;1.32;0.30;;;;;;;-0.06;100.00;97101.95;1794013;79;23414;-59
2022/01/31 02:51:45;;;;;;;0.70;0.20;;;;;;;-0.12;100.00;97099.02;1746144;81;21451;-59
2022/01/31 02:54:09;;;;;;;3.50;0.60;;;;;;;-0.09;100.00;97111.03;1744865;81;21082;-59
2022/01/31 02:56:40;;;;;;;1.12;0.30;;;;;;;-0.09;100.00;97105.69;1752514;82;21055;-59
2022/01/31 02:59:05;;;;;;;1.40;0.50;;;;;;;-0.09;100.00;97107.02;1717079;82;21063;-59
2022/01/31 03:01:37;;;;;;;2.12;0.50;;;;;;;-0.08;100.00;97106.77;1726648;82;21038;-60
2022/01/31 03:04:05;;;;;;;2.58;0.70;;;;;;;-0.07;100.00;97108.88;1741355;82;21098;-59
2022/01/31 03:06:32;;;;;;;3.95;1.32;;;;;;;-0.07;100.00;97108.88;1752796;82;21506;-59
2022/01/31 03:08:58;;;;;;;;;;;;;;;-0.08;100.00;97107.30;1744793;82;21122;-59
2022/01/31 03:11:27;;;;;;;2.67;1.12;;;;;;;-0.09;100.00;97106.50;1736808;82;20529;-59
2022/01/31 03:13:55;;;;;;;2.83;0.82;;;;;;;-0.16;100.00;97108.63;1730635;82;21075;-59
2022/01/31 03:16:22;;;;;;;2.60;1.15;;;;;;;-0.22;100.00;97111.05;1742430;82;21315;-60
2022/01/31 03:19:08;;;;;;;2.33;0.68;;;;;;;-0.25;100.00;97108.88;1724199;82;21086;-59
2022/01/31 03:21:35;;;;;;;2.08;0.50;;;;;;;-0.29;100.00;97107.83;1730487;82;21458;-59
2022/01/31 03:24:02;;;;;;;1.30;0.42;;;;;;;-0.30;100.00;97110.75;1751898;82;21091;-59
2022/01/31 03:26:28;;;;;;;1.12;0.40;;;;;;;-0.29;100.00;97118.52;1750756;82;20990;-60
2022/01/31 03:28:55;;;;;;;1.00;0.40;;;;;;;-0.28;100.00;97113.95;1751359;82;21015;-59
2022/01/31 03:31:21;;;;;;;1.40;0.40;;;;;;;-0.27;100.00;97120.38;1745912;82;21010;-60
2022/01/31 03:33:48;;;;;;;1.52;0.30;;;;;;;-0.26;100.00;97121.99;1751928;81;21161;-59
2022/01/31 03:36:15;;;;;;;1.42;0.40;;;;;;;-0.26;100.00;97125.20;1751460;82;20991;-59
2022/01/31 03:38:41;;;;;;;1.20;0.33;;;;;;;-0.28;100.00;97120.10;1750407;82;21026;-59
2022/01/31 03:41:09;;;;;;;1.05;0.40;;;;;;;-0.25;100.00;97131.59;1746802;82;21372;-60
2022/01/31 03:43:35;;;;;;;1.30;0.50;;;;;;;-0.23;100.00;97134.02;1750745;82;21066;-59
2022/01/31 03:46:02;;;;;;;1.15;0.30;;;;;;;-0.24;100.00;97129.73;1731945;82;21492;-60
2022/01/31 03:48:29;;;;;;;0.62;0.30;;;;;;;-0.25;100.00;97130.27;1734336;82;21019;-60
2022/01/31 03:50:57;;;;;;;1.65;0.40;;;;;;;-0.24;100.00;97133.22;1738568;82;20980;-60
2022/01/31 03:53:24;;;;;;;0.78;0.30;;;;;;;-0.24;100.00;97128.39;1720202;82;21035;-59
2022/01/31 03:55:50;;;;;;;1.82;0.30;;;;;;;-0.25;100.00;97133.50;1718262;82;21397;-60
2022/01/31 03:58:17;;;;;;;1.98;0.40;;;;;;;-0.25;100.00;97132.16;1720853;82;21075;-59
2022/01/31 04:00:48;;;;;;;1.92;0.40;;;;;;;-0.26;100.00;97129.21;1725143;82;21022;-59
2022/01/31 04:03:15;;;;;;;0.93;0.42;;;;;;;-0.25;100.00;97132.16;1721776;82;21135;-59
2022/01/31 04:05:42;;;;;;;0.93;0.30;;;;;;;-0.27;100.00;97128.94;1734921;82;21122;-59
2022/01/31 04:08:09;;;;;;;2.60;0.42;;;;;;;-0.28;100.00;97129.46;1722753;82;21506;-59
2022/01/31 04:10:36;;;;;;;1.72;0.82;;;;;;;-0.28;100.00;97130.80;1726003;82;21550;-60
2022/01/31 04:13:06;;;;;;;1.80;0.40;;;;;;;-0.29;100.00;97135.09;1746483;82;21601;-59
2022/01/31 04:15:33;;;;;;;2.30;0.53;;;;;;;-0.29;100.00;97125.73;1740856;82;21546;-60
2022/01/31 04:18:00;;;;;;;3.10;0.60;;;;;;;-0.30;100.00;97129.47;1719319;82;21110;-59
2022/01/31 04:20:26;;;;;;;1.57;0.50;;;;;;;-0.30;100.00;97134.28;1726321;82;21537;-59
2022/01/31 04:22:58;;;;;;;1.75;0.50;;;;;;;-0.30;100.00;97142.30;1747562;82;21082;-59
2022/01/31 04:25:42;;;;;;;2.10;0.42;;;;;;;-0.31;100.00;97135.87;1744448;82;21075;-59
2022/01/31 04:28:03;;;;;;;3.08;0.50;;;;;;;-0.32;100.00;97146.31;1717509;82;21038;-59
2022/01/31 04:30:35;;;;;;;2.52;0.50;;;;;;;-0.34;100.00;97149.24;1719425;82;21041;-59
2022/01/31 04:33:00;;;;;;;2.95;0.60;;;;;;;-0.34;100.00;97157.79;1730257;82;21062;-59
2022/01/31 04:35:27;;;;;;;2.20;0.70;;;;;;;-0.34;100.00;97149.77;1734788;82;21050;-60
2022/01/31 04:37:53;;;;;;;2.98;0.80;;;;;;;-0.35;100.00;97152.97;1725624;82;20968;-59
2022/01/31 04:40:19;;;;;;;3.30;0.68;;;;;;;-0.36;100.00;97160.75;1746480;82;21027;-59
2022/01/31 04:42:46;;;;;;;1.52;0.62;;;;;;;-0.36;100.00;97153.25;1731360;82;21472;-59
2022/01/31 04:45:12;;;;;;;3.12;0.60;;;;;;;-0.37;100.00;97159.13;1744490;82;21062;-59
2022/01/31 04:47:39;;;;;;;2.37;0.55;;;;;;;-0.40;100.00;97154.84;1732366;81;22242;-59
2022/01/31 04:50:07;;;;;;;1.52;0.40;;;;;;;-0.40;100.00;97158.86;1752012;82;21067;-59
2022/01/31 04:52:33;;;;;;;2.35;0.80;;;;;;;-0.42;100.00;97164.45;1750313;82;20927;-59
2022/01/31 04:54:59;;;;;;;4.55;1.30;;;;;;;-0.45;100.00;97174.34;1752327;82;21522;-59
2022/01/31 04:57:25;;;;;;;2.65;0.93;;;;;;;-0.44;100.00;97175.14;1731122;82;21011;-59
2022/01/31 04:59:52;;;;;;;2.20;0.70;;;;;;;-0.48;100.00;97176.20;1723617;82;21545;-59
2022/01/31 05:02:18;;;;;;;;;;;;;;;-0.50;100.00;97168.44;1734412;82;20976;-60
2022/01/31 05:04:44;;;;;;;2.08;0.70;;;;;;;-0.52;100.00;97167.91;1742189;82;20417;-59
2022/01/31 05:07:11;;;;;;;3.75;0.90;;;;;;;-0.56;100.00;97178.05;1727340;82;21066;-60
2022/01/31 05:09:37;;;;;;;;;;;;;;;-0.55;100.00;97185.81;1748983;82;21498;-59
2022/01/31 05:12:05;;;;;;;3.00;1.15;;;;;;;-0.53;100.00;97187.67;1723993;82;20190;-59
2022/01/31 05:14:32;;;;;;;3.55;1.02;;;;;;;-0.55;100.00;97182.33;1741205;82;21066;-59
2022/01/31 05:16:58;;;;;;;2.50;1.32;;;;;;;-0.54;100.00;97191.43;1740678;82;21030;-59
2022/01/31 05:19:25;;;;;;;1.95;1.07;;;;;;;-0.54;100.00;97200.78;1750930;82;21102;-59
2022/01/31 05:21:51;;;;;;;3.72;1.10;;;;;;;-0.53;100.00;97203.70;1750614;82;21074;-60
2022/01/31 05:24:19;;;;;;;2.15;1.00;;;;;;;-0.52;100.00;97190.63;1738008;82;21075;-59
2022/01/31 05:26:50;;;;;;;2.10;0.90;;;;;;;-0.62;100.00;97184.44;1729921;82;21030;-61
2022/01/31 05:29:13;;;;;;;2.45;1.20;;;;;;;-0.53;100.00;97206.38;1723648;82;22001;-59
2022/01/31 05:31:39;;;;;;;2.67;1.20;;;;;;;-0.52;100.00;97203.18;1725461;82;21011;-60
2022/01/31 05:34:05;;;;;;;2.75;1.02;;;;;;;-0.53;100.00;97204.23;1743819;82;21094;-59
2022/01/31 05:36:32;;;;;;;2.92;0.98;;;;;;;-0.54;100.00;97208.80;1734982;82;21035;-59
2022/01/31 05:38:58;;;;;;;3.22;1.20;;;;;;;-0.56;100.00;97223.47;1725137;82;21129;-59
2022/01/31 05:41:25;;;;;;;3.40;1.20;;;;;;;-0.57;100.00;97214.64;1742081;82;21006;-59
2022/01/31 05:43:51;;;;;;;3.47;0.90;;;;;;;-0.58;100.00;97218.41;1734289;82;21090;-59
2022/01/31 05:46:17;;;;;;;3.05;1.27;;;;;;;-0.59;100.00;97228.00;1752741;82;21054;-60
2022/01/31 05:48:44;;;;;;;3.90;1.55;;;;;;;-0.60;100.00;97233.06;1745420;82;21063;-59
2022/01/31 05:51:18;;;;;;;4.10;1.32;;;;;;;-0.61;100.00;97238.97;1752153;82;20960;-60
2022/01/31 05:53:45;;;;;;;2.70;1.10;;;;;;;-0.60;100.00;97241.89;1741237;81;21047;-59
2022/01/31 05:56:12;;;;;;;3.52;1.05;;;;;;;-0.59;100.00;97242.70;1735027;82;20967;-58
2022/01/31 05:58:38;;;;;;;2.33;0.80;;;;;;;-0.60;100.00;97240.55;1728329;82;21648;-58
2022/01/31 06:01:04;;;;;;;3.42;1.12;;;;;;;-0.59;100.00;97242.70;1729711;82;21007;-59
2022/01/31 06:03:31;;;;;;;;;;;;;;;-0.62;100.00;97256.59;1726937;82;21010;-58
2022/01/31 06:05:58;;;;;;;3.98;1.05;;;;;;;-0.64;100.00;97252.83;1723506;83;20444;-58
2022/01/31 06:08:24;;;;;;;2.00;0.80;;;;;;;-0.71;100.00;97244.24;1723918;82;21020;-58
2022/01/31 06:10:51;;;;;;;;;;;;;;;-0.72;100.00;97246.66;1725758;83;21522;-58
2022/01/31 06:13:23;;;;;;;3.77;1.05;;;;;;;-0.73;100.00;97237.56;1736259;82;20132;-58
2022/01/31 06:15:46;;;;;;;2.80;0.72;;;;;;;-0.78;100.00;97247.67;1722515;82;21582;-59
2022/01/31 06:18:12;;;;;;;5.33;1.27;;;;;;;-0.79;100.00;97244.76;1728075;82;21094;-59
2022/01/31 06:20:40;;;;;;;3.00;0.82;;;;;;;-0.78;100.00;97245.56;1737734;82;21569;-59
2022/01/31 06:23:06;;;;;;;2.95;1.10;;;;;;;-0.77;100.00;97248.48;1746600;82;20991;-59
2022/01/31 06:25:34;;;;;;;3.62;1.10;;;;;;;-0.78;100.00;97253.02;1739042;82;21091;-59
2022/01/31 06:28:01;;;;;;;4.08;1.57;;;;;;;-0.79;100.00;97248.77;1733319;82;21050;-58
2022/01/31 06:30:29;;;;;;;3.45;1.35;;;;;;;-0.78;100.00;97244.23;1727501;82;21090;-59
2022/01/31 06:32:55;;;;;;;4.45;1.40;;;;;;;-0.83;100.00;97230.83;1753183;82;21034;-59
2022/01/31 06:35:22;;;;;;;3.15;0.90;;;;;;;-0.71;100.00;97236.78;1753021;82;21071;-59
2022/01/31 06:37:49;;;;;;;2.17;0.60;;;;;;;-0.68;100.00;97249.62;1740260;82;21004;-59
2022/01/31 06:40:15;;;;;;;1.47;0.60;;;;;;;-0.65;100.00;97235.73;1725581;82;21083;-59
2022/01/31 06:42:41;;;;;;;2.00;0.35;;;;;;;-0.62;100.00;97246.70;1732455;82;21078;-59
2022/01/31 06:45:09;;;;;;;2.70;0.40;;;;;;;-0.58;100.00;97253.67;1752965;82;21087;-59
2022/01/31 06:47:36;;;;;;;2.02;0.70;;;;;;;-0.54;100.00;97266.26;1752751;82;21020;-59
2022/01/31 06:50:06;;;;;;;3.95;0.70;;;;;;;-0.52;100.00;97266.78;1730351;81;21063;-59
2022/01/31 06:52:36;;;;;;;1.92;0.50;;;;;;;-0.47;100.00;97275.90;1738840;82;21086;-58
2022/01/31 06:55:05;;;;;;;1.50;0.40;;;;;;;-0.45;100.00;97277.23;1724563;82;21075;-59
2022/01/31 06:57:36;;;;;;;1.50;0.50;;;;;;;-0.41;100.00;97268.16;1709718;84;21036;-58
2022/01/31 07:00:07;;;;;;;1.37;0.40;;;;;;;-0.35;100.00;97277.27;1736691;82;21538;-58
2022/01/31 07:02:33;;;;;;;1.45;0.40;;;;;;;-0.28;100.00;97290.39;1733471;82;20948;-58
2022/01/31 07:05:03;;;;;;;1.72;0.53;;;;;;;-0.23;100.00;97270.38;1710273;82;21055;-58
2022/01/31 07:07:31;;;;;;;1.22;0.40;;;;;;;-0.22;100.00;97280.02;1728377;82;21408;-59
2022/01/31 07:09:57;;;;;;;2.37;0.70;;;;;;;-0.18;100.00;97279.77;1736545;82;21066;-58
2022/01/31 07:12:32;;;;;;;2.08;0.60;;;;;;;-0.14;100.00;97282.16;1737110;82;21610;-60
2022/01/31 07:14:54;;;;;;;1.98;0.80;;;;;;;-0.15;100.00;97291.27;1718322;82;21589;-60
2022/01/31 07:17:20;;;;;;;1.60;0.70;;;;;;;-0.21;100.00;97286.95;1719322;82;21123;-60
2022/01/31 07:19:47;;;;;;;2.65;1.00;;;;;;;-0.24;100.00;97284.27;1732011;82;21637;-60
2022/01/31 07:22:14;;;;;;;3.40;0.75;;;;;;;-0.19;100.00;97290.18;1724285;82;21039;-60
2022/01/31 07:24:52;;;;;;;3.65;1.07;;;;;;;-0.22;100.00;97291.52;1717821;82;21471;-60
2022/01/31 07:27:16;;;;;;;1.52;0.50;;;;;;;-0.20;100.00;97296.59;1717340;82;21502;-60
2022/01/31 07:29:44;;;;;;;2.42;0.60;;;;;;;-0.17;100.00;97300.88;1729115;82;21063;-61
2022/01/31 07:32:10;;;;;;;1.92;0.90;;;;;;;-0.12;100.00;97309.45;1722767;82;21035;-61
2022/01/31 07:34:39;;;;;;;3.15;1.00;;;;;;;-0.06;100.00;97303.05;1709499;84;21052;-61
2022/01/31 07:37:06;;;;;;;5.58;1.15;;;;;;;-0.01;100.00;97299.88;1710950;82;20963;-60
2022/01/31 07:39:34;;;;;;;2.95;1.30;;;;;;;0.09;100.00;97298.28;1715548;82;21646;-61
2022/01/31 07:42:01;;;;;;;2.90;1.37;;;;;;;0.14;100.00;97303.66;1732058;82;21548;-61
2022/01/31 07:44:27;;;;;;;2.70;1.45;;;;;;;0.14;100.00;97307.15;1736386;82;21075;-61
2022/01/31 07:46:53;;;;;;;2.22;0.98;;;;;;;0.12;100.00;97311.94;1713533;82;21031;-62
2022/01/31 07:49:22;;;;;;;2.08;0.82;;;;;;;0.15;100.00;97317.28;1720890;82;21549;-61
2022/01/31 07:51:49;;;;;;;3.10;0.75;;;;;;;0.16;100.00;97317.56;1723885;83;21035;-61
2022/01/31 07:54:15;;;;;;;1.72;0.88;;;;;;;0.11;100.00;97321.02;1723961;83;21118;-61
2022/01/31 07:56:43;;;;;;;2.58;0.82;;;;;;;0.02;100.00;97322.61;1735112;82;20975;-61
2022/01/31 07:59:10;;;;;;;2.77;0.95;;;;;;;-0.05;100.00;97326.88;1751577;82;21065;-61
2022/01/31 08:01:37;;;;;;;2.85;1.00;;;;;;;-0.11;100.00;97327.13;1751323;82;21083;-61
2022/01/31 08:04:04;;;;;;;2.35;1.10;;;;;;;-0.17;100.00;97340.18;1751505;82;21102;-59
2022/01/31 08:06:32;;;;;;;4.35;1.20;;;;;;;-0.23;100.00;97334.55;1744832;82;21007;-60
2022/01/31 08:08:59;;;;;;;2.40;1.10;;;;;;;-0.28;100.00;97339.86;1722885;83;21467;-60
2022/01/31 08:11:32;;;;;;;1.55;0.72;;;;;;;-0.28;100.00;97346.53;1724704;82;21518;-60
2022/01/31 08:13:59;;;;;;;2.17;0.60;;;;;;;-0.29;100.00;97353.78;1734063;82;21071;-60
2022/01/31 08:16:23;;;;;;;2.83;0.90;;;;;;;-0.27;100.00;97355.65;1749301;82;21023;-64
2022/01/31 08:18:50;;;;;;;2.08;0.70;;;;;;;-0.25;100.00;97356.73;1747674;82;21043;-61
2022/01/31 08:21:16;;;;;;;2.92;1.02;;;;;;;-0.20;100.00;97366.11;1751102;82;21597;-61
2022/01/31 08:23:43;;;;;;;2.90;1.02;;;;;;;-0.11;100.00;97358.66;1734009;80;21483;-60
2022/01/31 08:26:14;;;;;;;2.08;0.75;;;;;;;-0.03;100.00;97358.69;1748054;82;21498;-61
2022/01/31 08:31:18;;;;;;;2.95;1.40;;;;;;;0.13;100.00;97355.55;1672622;83;21003;-62
2022/01/31 08:33:47;;;;;;;4.33;1.30;;;;;;;0.15;100.00;97358.76;1723845;82;21015;-62
2022/01/31 08:36:11;;;;;;;2.10;1.10;;;;;;;0.17;100.00;97369.48;1674560;85;21043;-63
2022/01/31 08:38:39;;;;;;;3.05;1.45;;;;;;;0.15;100.00;97378.30;1733022;82;20972;-61
2022/01/31 08:41:07;;;;;;;4.12;1.70;;;;;;;0.12;100.00;97377.48;1745901;82;21023;-62
2022/01/31 08:43:36;;;;;;;2.67;1.20;;;;;;;0.07;100.00;97392.72;1740172;82;21003;-61
2022/01/31 08:46:04;;;;;;;1.87;0.82;;;;;;;-0.02;100.00;97379.84;1722934;82;21022;-61
2022/01/31 08:48:31;;;;;;;2.22;0.95;;;;;;;-0.09;100.00;97385.15;1725220;82;21048;-61
2022/01/31 08:50:57;;;;;;;3.00;1.17;;;;;;;-0.16;100.00;97389.41;1723624;82;21081;-60
2022/01/31 08:53:24;;;;;;;;;;;;;;;-0.16;100.00;97396.61;1729980;82;21038;-62
2022/01/31 08:55:56;;;;;;;4.20;1.67;;;;;;;-0.17;100.00;97399.00;1723010;83;20109;-61
2022/01/31 08:58:22;;;;;;;3.45;1.32;;;;;;;-0.19;100.00;97389.92;1725293;82;20956;-61
2022/01/31 09:00:57;;;;;;;2.05;0.90;;;;;;;-0.13;100.00;97397.42;1722945;83;21644;-61
2022/01/31 09:03:23;;;;;;;3.10;0.98;;;;;;;-0.10;100.00;97397.71;1723487;82;20995;-60
2022/01/31 09:05:45;;;;;;;2.77;1.07;;;;;;;-0.06;100.00;97400.14;1722928;83;21932;-61
2022/01/31 09:08:12;;;;;;;3.15;1.10;;;;;;;-0.02;100.00;97395.89;1739180;82;20991;-61
2022/01/31 09:10:39;;;;;;;4.87;1.70;;;;;;;0.02;100.00;97402.86;1723278;83;21638;-61
2022/01/31 09:13:06;;;;;;;3.47;1.55;;;;;;;0.06;100.00;97403.14;1736020;82;20967;-60
2022/01/31 09:15:34;;;;;;;2.70;1.10;;;;;;;0.06;100.00;97399.94;1722593;83;21046;-60
2022/01/31 09:18:00;;;;;;;3.58;1.42;;;;;;;0.06;100.00;97412.50;1728594;82;21029;-61
2022/01/31 09:20:27;;;;;;;3.30;1.15;;;;;;;0.08;100.00;97407.69;1738901;82;21082;-61
2022/01/31 09:22:53;;;;;;;3.65;1.10;;;;;;;0.09;100.00;97416.80;1725907;82;20991;-64
2022/01/31 09:25:20;;;;;;;;;;;;;;;0.11;100.00;97417.33;1725388;82;21494;-60
2022/01/31 09:27:46;;;;;;;2.85;1.10;;;;;;;0.09;100.00;97418.14;1722952;83;20175;-61
2022/01/31 09:30:14;;;;;;;4.67;0.90;;;;;;;0.05;100.00;97423.73;1737080;82;21553;-60
2022/01/31 09:32:41;;;;;;;1.70;0.62;;;;;;;0.06;100.00;97421.34;1742696;82;21066;-62
2022/01/31 09:35:08;;;;;;;2.75;0.90;;;;;;;0.07;100.00;97429.64;1739776;82;21106;-61
2022/01/31 09:37:35;;;;;;;2.62;0.93;;;;;;;0.05;100.00;97425.06;1723504;83;21045;-63
2022/01/31 09:40:04;;;;;;;3.35;1.20;;;;;;;0.03;100.00;97435.77;1735126;82;21047;-62
2022/01/31 09:42:35;;;;;;;4.40;1.52;;;;;;;-0.01;100.00;97429.60;1738467;82;21039;-63
2022/01/31 09:50:12;;;;;;;4.72;1.75;;;;;;;-0.05;100.00;97443.22;1694441;83;21629;-61
2022/01/31 09:52:39;;;;;;;3.50;1.27;;;;;;;-0.08;100.00;97433.56;1745568;82;20991;-62
2022/01/31 09:55:07;;;;;;;2.72;1.17;;;;;;;-0.08;100.00;97440.25;1749619;82;21066;-62
2022/01/31 09:57:33;;;;;;;3.95;1.55;;;;;;;-0.09;100.00;97445.32;1744456;81;20952;-62
2022/01/31 09:59:59;;;;;;;3.65;1.42;;;;;;;-0.12;100.00;97446.66;1731366;82;21446;-61
2022/01/31 10:02:26;;;;;;;5.15;1.45;;;;;;;-0.14;100.00;97443.41;1719129;83;20983;-63
2022/01/31 10:04:52;;;;;;;3.65;1.27;;;;;;;-0.12;100.00;97452.00;1719523;83;21150;-62
2022/01/31 10:07:21;;;;;;;4.00;1.52;;;;;;;-0.12;100.00;97453.34;1719993;82;21007;-62
2022/01/31 10:09:48;;;;;;;4.50;1.55;;;;;;;-0.09;100.00;97458.17;1719060;82;21100;-62
2022/01/31 10:17:48;;;;;;;2.62;1.07;;;;;;;-0.05;100.00;97458.45;1695807;82;21058;-62
2022/01/31 10:20:28;;;;;;;4.60;1.45;;;;;;;-0.06;100.00;97452.30;1740245;82;21087;-62
2022/01/31 10:23:09;;;;;;;4.05;1.07;;;;;;;-0.07;100.00;97452.02;1749454;82;21472;-63
2022/01/31 10:25:36;;;;;;;3.27;1.10;;;;;;;-0.04;100.00;97451.49;1748974;82;21142;-62
2022/01/31 10:28:04;;;;;;;4.05;1.30;;;;;;;-0.02;100.00;97455.26;1729121;82;21038;-62
2022/01/31 10:30:31;;;;;;;3.35;1.42;;;;;;;0.01;100.00;97448.05;1703839;83;21031;-61
2022/01/31 10:32:58;;;;;;;3.72;1.60;;;;;;;0.06;100.00;97449.95;1719500;83;21035;-62
2022/01/31 10:35:32;;;;;;;4.75;1.22;;;;;;;0.12;100.00;97463.62;1719253;83;21134;-61
2022/01/31 10:38:01;;;;;;;2.58;0.85;;;;;;;0.17;100.00;97459.64;1729876;82;20959;-62
2022/01/31 10:54:26;;;;;;;3.55;1.00;;;;;;;0.28;100.00;97460.78;1725622;82;21039;-62
2022/01/31 10:56:53;;;;;;;3.72;1.50;;;;;;;0.29;100.00;97467.72;1741993;82;21479;-62
2022/01/31 10:59:35;;;;;;;2.85;1.07;;;;;;;0.33;100.00;97465.33;1753271;82;21034;-62
2022/01/31 11:02:05;;;;;;;3.37;1.35;;;;;;;0.33;100.00;97464.80;1753292;82;21838;-62
2022/01/31 11:04:37;;;;;;;2.65;1.22;;;;;;;0.32;100.00;97467.20;1753062;82;21584;-62
2022/01/31 11:07:08;;;;;;;4.47;1.17;;;;;;;0.32;100.00;97470.43;1737296;82;21014;-62
2022/01/31 11:09:35;;;;;;;4.55;1.37;;;;;;;0.30;100.00;97474.69;1753074;82;21724;-60
2022/01/31 11:12:05;;;;;;;2.83;1.35;;;;;;;0.28;100.00;97474.16;1753417;82;21541;-62
2022/01/31 11:14:35;;;;;;;2.70;1.05;;;;;;;0.27;100.00;97473.07;1753232;82;21410;-60
2022/01/31 11:17:13;;;;;;;4.50;1.57;;;;;;;0.31;100.00;97478.17;1677936;84;21012;-61
2022/01/31 11:19:42;;;;;;;3.90;0.90;;;;;;;0.35;100.00;97475.26;1692986;84;21516;-60
2022/01/31 11:22:11;;;;;;;1.82;0.70;;;;;;;0.39;100.00;97465.64;1693700;85;21008;-61
2022/01/31 11:24:44;;;;;;;2.33;0.90;;;;;;;0.40;100.00;97476.60;1682932;85;21098;-62
2022/01/31 11:27:23;;;;;;;2.33;0.80;;;;;;;0.38;100.00;97480.09;1679865;85;21516;-61
2022/01/31 11:29:55;;;;;;;1.85;0.60;;;;;;;0.38;100.00;97484.91;1723347;83;21046;-61
2022/01/31 11:32:23;;;;;;;3.37;0.80;;;;;;;0.39;100.00;97487.05;1686368;85;20988;-61
2022/01/31 11:34:49;;;;;;;1.50;0.60;;;;;;;0.40;100.00;97500.16;1730603;82;21070;-61
2022/01/31 11:37:18;;;;;;;2.60;0.90;;;;;;;0.39;100.00;97492.41;1753582;82;21019;-61
2022/01/31 11:39:46;;;;;;;2.08;0.65;;;;;;;0.38;100.00;97493.47;1753187;82;21023;-61
2022/01/31 11:42:13;;;;;;;2.40;0.80;;;;;;;0.39;100.00;97481.14;1753198;82;21015;-60
2022/01/31 11:44:51;;;;;;;1.17;0.60;;;;;;;0.41;100.00;97488.92;1731029;82;21493;-61
2022/01/31 11:47:24;;;;;;;3.12;1.00;;;;;;;0.37;100.00;97491.31;1725290;82;21478;-61
2022/01/31 11:50:02;;;;;;;4.12;1.10;;;;;;;0.35;100.00;97488.11;1748143;82;21076;-61
2022/01/31 11:52:43;;;;;;;2.60;0.88;;;;;;;0.35;100.00;97490.78;1739347;82;21011;-61
2022/01/31 11:55:12;;;;;;;3.33;0.90;;;;;;;0.34;100.00;97481.66;1735919;82;21114;-63
2022/01/31 11:57:39;;;;;;;2.25;0.70;;;;;;;0.34;100.00;97485.16;1739190;82;21049;-61
2022/01/31 12:00:10;;;;;;;2.40;0.95;;;;;;;0.35;100.00;97491.31;1737083;82;21138;-61
2022/01/31 12:02:47;;;;;;;1.77;0.83;;;;;;;0.35;100.00;97498.00;1710738;82;21788;-62
2022/01/31 12:05:20;;;;;;;2.80;0.80;;;;;;;0.33;100.00;97507.63;1663676;86;21727;-61